createdAt,value
2019-05-12T00:01:19.648Z,4.88
2019-05-12T00:04:28.152Z,4.79
2019-05-12T00:07:38.171Z,4.79
2019-05-12T00:10:47.841Z,4.93
2019-05-12T00:13:58.488Z,4.68
2019-05-12T00:17:08.186Z,5.01
2019-05-12T00:20:18.624Z,5.19
2019-05-12T00:23:28.681Z,4.83
2019-05-12T00:26:38.283Z,4.90
2019-05-12T00:29:48.535Z,4.86
2019-05-12T00:32:58.069Z,4.86
2019-05-12T00:36:08.054Z,4.87
2019-05-12T00:39:18.890Z,4.98
2019-05-12T00:42:28.609Z,4.87
2019-05-12T00:45:38.260Z,4.82
2019-05-12T00:48:48.248Z,5.20
2019-05-12T00:51:58.576Z,5.20
2019-05-12T00:55:08.021Z,5.18
2019-05-12T00:58:19.361Z,5.15
2019-05-12T01:01:28.542Z,5.30
2019-05-12T01:04:38.120Z,5.30
2019-05-12T01:07:48.215Z,5.33
2019-05-12T01:10:58.300Z,5.26
2019-05-12T01:14:08.611Z,5.38
2019-05-12T01:17:17.696Z,5.41
2019-05-12T01:20:28.031Z,5.47
2019-05-12T01:23:35.644Z,5.39
2019-05-12T01:26:43.733Z,5.39
2019-05-12T01:29:51.909Z,5.47
2019-05-12T01:36:23.540Z,5.56
2019-05-12T01:39:31.532Z,5.69
2019-05-12T01:42:39.598Z,5.69
2019-05-12T01:45:48.283Z,5.72
2019-05-12T01:48:58.959Z,5.88
2019-05-12T01:52:08.595Z,5.88
2019-05-12T01:55:18.508Z,5.90
2019-05-12T01:58:27.807Z,6.01
2019-05-12T02:01:38.618Z,6.03
2019-05-12T02:05:08.607Z,6.03
2019-05-12T02:08:22.482Z,6.08
2019-05-12T02:11:34.358Z,5.97
2019-05-12T02:14:42.470Z,6.07
2019-05-12T02:17:50.924Z,6.02
2019-05-12T02:20:59.247Z,6.11
2019-05-12T02:24:07.966Z,6.06
2019-05-12T02:27:17.805Z,6.10
2019-05-12T02:30:30.085Z,5.95
2019-05-12T02:33:36.548Z,5.87
2019-05-12T02:36:45.061Z,5.78
2019-05-12T02:39:55.612Z,5.78
2019-05-12T02:43:06.011Z,5.84
2019-05-12T02:46:15.492Z,5.82
2019-05-12T02:49:24.510Z,5.77
2019-05-12T02:52:34.722Z,5.54
2019-05-12T02:55:45.052Z,5.54
2019-05-12T02:58:54.364Z,5.46
2019-05-12T03:02:05.242Z,5.49
2019-05-12T03:05:14.848Z,5.19
2019-05-12T03:08:25.612Z,5.24
2019-05-12T03:11:35.570Z,5.08
2019-05-12T03:14:46.036Z,5.13
2019-05-12T03:17:54.668Z,5.20
2019-05-12T03:21:05.557Z,5.11
2019-05-12T03:24:14.717Z,5.10
2019-05-12T03:27:25.633Z,4.99
2019-05-12T03:30:38.427Z,5.09
2019-05-12T03:33:50.168Z,4.96
2019-05-12T03:36:58.574Z,4.99
2019-05-12T03:40:05.180Z,4.96
2019-05-12T03:43:14.519Z,4.86
2019-05-12T03:46:24.566Z,4.91
2019-05-12T03:49:30.445Z,4.93
2019-05-12T03:52:38.533Z,4.93
2019-05-12T03:55:47.336Z,5.02
2019-05-12T03:58:55.513Z,4.95
2019-05-12T04:02:04.785Z,4.78
2019-05-12T04:05:15.555Z,4.78
2019-05-12T04:08:24.620Z,4.92
2019-05-12T04:11:35.699Z,5.10
2019-05-12T04:14:44.847Z,4.93
2019-05-12T04:17:54.234Z,4.91
2019-05-12T04:21:05.198Z,4.84
2019-05-12T04:24:14.071Z,4.88
2019-05-12T04:27:21.396Z,4.89
2019-05-12T04:30:29.607Z,4.97
2019-05-12T04:33:37.556Z,4.88
2019-05-12T04:36:45.547Z,4.85
2019-05-12T04:39:55.361Z,4.83
2019-05-12T04:43:05.958Z,4.83
2019-05-12T04:46:14.520Z,4.90
2019-05-12T04:49:25.068Z,4.58
2019-05-12T04:52:35.154Z,4.71
2019-05-12T04:55:44.614Z,4.78
2019-05-12T04:58:54.627Z,4.95
2019-05-12T05:02:05.164Z,5.05
2019-05-12T05:05:14.253Z,4.95
2019-05-12T05:08:20.905Z,5.11
2019-05-12T05:11:28.888Z,5.37
2019-05-12T05:14:37.289Z,5.37
2019-05-12T05:17:46.017Z,5.40
2019-05-12T05:20:54.445Z,5.52
2019-05-12T05:24:03.617Z,5.50
2019-05-12T05:27:13.264Z,5.64
2019-05-12T05:30:21.099Z,5.48
2019-05-12T05:33:29.239Z,5.68
2019-05-12T05:36:37.719Z,5.54
2019-05-12T05:39:49.564Z,5.63
2019-05-12T05:42:55.854Z,5.42
2019-05-12T05:46:07.730Z,5.68
2019-05-12T05:49:14.513Z,5.67
2019-05-12T05:52:24.512Z,5.90
2019-05-12T05:55:34.204Z,5.90
2019-05-12T05:58:46.911Z,5.74
2019-05-12T06:01:54.905Z,5.64
2019-05-12T06:05:04.429Z,6.02
2019-05-12T06:08:19.779Z,5.83
2019-05-12T06:11:28.135Z,5.63
2019-05-12T06:14:34.187Z,5.78
2019-05-12T06:17:43.893Z,5.50
2019-05-12T06:20:54.105Z,6.07
2019-05-12T06:24:03.531Z,5.99
2019-05-12T06:27:19.228Z,6.29
2019-05-12T06:30:24.153Z,5.89
2019-05-12T06:33:36.140Z,5.93
2019-05-12T06:36:44.175Z,5.94
2019-05-12T06:39:57.925Z,6.24
2019-05-12T06:43:04.390Z,7.13
2019-05-12T06:46:20.368Z,6.91
2019-05-12T06:49:24.585Z,6.28
2019-05-12T06:52:33.701Z,6.03
2019-05-12T06:55:43.267Z,6.21
2019-05-12T06:58:53.455Z,5.90
2019-05-12T07:02:03.398Z,5.78
2019-05-12T07:05:14.593Z,6.24
2019-05-12T07:08:27.483Z,6.07
2019-05-12T07:11:44.543Z,6.70
2019-05-12T07:14:44.312Z,6.04
2019-05-12T07:18:10.276Z,6.19
2019-05-12T07:21:20.264Z,6.13
2019-05-12T07:24:27.366Z,6.12
2019-05-12T07:27:39.608Z,5.85
2019-05-12T07:30:46.430Z,6.19
2019-05-12T07:33:54.231Z,6.09
2019-05-12T07:37:04.241Z,6.79
2019-05-12T07:40:13.729Z,6.86
2019-05-12T07:43:21.530Z,7.40
2019-05-12T07:46:29.744Z,7.43
2019-05-12T07:49:38.853Z,7.43
2019-05-12T07:52:49.284Z,7.82
2019-05-12T07:55:57.600Z,7.58
2019-05-12T07:59:06.104Z,8.21
2019-05-12T08:02:14.344Z,8.21
2019-05-12T08:05:24.042Z,8.04
2019-05-12T08:08:33.961Z,8.93
2019-05-12T08:11:43.475Z,7.98
2019-05-12T08:14:51.529Z,10.05
2019-05-12T08:17:59.908Z,10.86
2019-05-12T08:21:08.553Z,10.86
2019-05-12T08:24:19.241Z,10.76
2019-05-12T08:27:27.530Z,10.76
2019-05-12T08:30:40.430Z,9.83
2019-05-12T08:33:47.668Z,9.83
2019-05-12T08:36:57.912Z,10.12
2019-05-12T08:40:07.608Z,10.24
2019-05-12T08:43:19.653Z,12.03
2019-05-12T08:46:27.838Z,10.65
2019-05-12T08:49:50.106Z,11.72
2019-05-12T08:52:46.546Z,10.29
2019-05-12T08:55:54.526Z,11.96
2019-05-12T08:59:09.437Z,12.16
2019-05-12T09:02:14.583Z,12.16
2019-05-12T09:05:25.856Z,12.78
2019-05-12T09:08:37.961Z,11.99
2019-05-12T09:11:44.041Z,9.88
2019-05-12T09:14:54.580Z,10.45
2019-05-12T09:18:04.771Z,10.60
2019-05-12T09:21:14.331Z,10.11
2019-05-12T09:24:27.229Z,9.61
2019-05-12T09:27:33.592Z,10.35
2019-05-12T09:30:47.623Z,12.12
2019-05-12T09:33:54.773Z,11.59
2019-05-12T09:37:04.016Z,11.71
2019-05-12T09:40:14.729Z,11.77
2019-05-12T09:43:23.929Z,12.09
2019-05-12T09:46:34.261Z,12.65
2019-05-12T09:49:44.426Z,11.46
2019-05-12T09:52:55.608Z,12.20
2019-05-12T09:56:05.051Z,12.20
2019-05-12T09:59:20.830Z,11.73
2019-05-12T10:02:23.892Z,10.63
2019-05-12T10:05:37.545Z,10.92
2019-05-12T10:08:43.493Z,11.68
2019-05-12T10:12:00.275Z,11.49
2019-05-12T10:15:04.106Z,11.49
2019-05-12T10:18:14.342Z,15.26
2019-05-12T10:21:23.822Z,12.84
2019-05-12T10:24:40.226Z,10.88
2019-05-12T10:27:44.088Z,13.71
2019-05-12T10:30:56.924Z,12.75
2019-05-12T10:34:24.195Z,11.70
2019-05-12T10:37:32.654Z,11.45
2019-05-12T10:40:44.400Z,11.45
2019-05-12T10:43:57.781Z,13.90
2019-05-12T10:47:06.565Z,12.37
2019-05-12T10:50:18.514Z,14.48
2019-05-12T10:53:27.576Z,12.77
2019-05-12T10:56:36.341Z,13.85
2019-05-12T10:59:48.449Z,13.85
2019-05-12T11:02:54.943Z,13.07
2019-05-12T11:06:07.518Z,14.07
2019-05-12T11:09:14.914Z,13.81
2019-05-12T11:12:25.318Z,13.81
2019-05-12T11:15:34.362Z,13.90
2019-05-12T11:18:43.669Z,13.66
2019-05-12T11:21:53.603Z,13.30
2019-05-12T11:25:04.104Z,12.95
2019-05-12T11:28:13.872Z,13.74
2019-05-12T11:31:21.537Z,15.55
2019-05-12T11:34:29.619Z,15.69
2019-05-12T11:37:39.364Z,15.69
2019-05-12T11:40:46.483Z,15.49
2019-05-12T11:43:53.347Z,14.25
2019-05-12T11:47:03.816Z,14.22
2019-05-12T11:50:13.248Z,12.81
2019-05-12T11:53:30.959Z,14.16
2019-05-12T11:56:35.280Z,14.02
2019-05-12T11:59:58.049Z,13.50
2019-05-12T12:02:54.588Z,13.21
2019-05-12T12:06:02.555Z,13.25
2019-05-12T12:09:15.238Z,14.50
2019-05-12T12:12:19.428Z,14.50
2019-05-12T12:15:30.372Z,14.96
2019-05-12T12:18:38.586Z,13.98
2019-05-12T12:21:50.060Z,14.98
2019-05-12T12:24:56.989Z,14.98
2019-05-12T12:28:05.239Z,13.42
2019-05-12T12:31:13.518Z,14.18
2019-05-12T12:34:25.397Z,14.67
2019-05-12T12:37:33.147Z,15.76
2019-05-12T12:40:43.790Z,13.99
2019-05-12T12:43:53.971Z,13.99
2019-05-12T12:47:02.032Z,15.39
2019-05-12T12:50:20.265Z,14.79
2019-05-12T12:53:27.678Z,15.08
2019-05-12T12:56:36.742Z,13.44
2019-05-12T12:59:51.463Z,14.05
2019-05-12T13:02:58.522Z,15.02
2019-05-12T13:06:06.554Z,14.22
2019-05-12T13:09:24.319Z,15.78
2019-05-12T13:12:24.502Z,15.78
2019-05-12T13:15:33.992Z,15.00
2019-05-12T13:18:43.530Z,15.00
2019-05-12T13:21:53.210Z,14.76
2019-05-12T13:25:06.470Z,14.94
2019-05-12T13:28:18.427Z,15.47
2019-05-12T13:31:21.376Z,16.04
2019-05-12T13:34:28.760Z,15.38
2019-05-12T13:37:38.027Z,14.71
2019-05-12T13:40:47.224Z,14.54
2019-05-12T13:43:59.840Z,14.98
2019-05-12T13:47:05.561Z,16.32
2019-05-12T13:50:21.508Z,16.37
2019-05-12T13:53:24.486Z,16.37
2019-05-12T13:56:35.312Z,16.02
2019-05-12T13:59:43.509Z,15.28
2019-05-12T14:02:57.202Z,15.61
2019-05-12T14:06:03.547Z,16.38
2019-05-12T14:09:15.412Z,14.93
2019-05-12T14:12:25.240Z,14.20
2019-05-12T14:15:34.129Z,15.08
2019-05-12T14:18:44.212Z,16.34
2019-05-12T14:21:54.237Z,16.25
2019-05-12T14:25:02.229Z,16.26
2019-05-12T14:28:13.592Z,14.68
2019-05-12T14:31:29.303Z,16.60
2019-05-12T14:34:30.385Z,16.92
2019-05-12T14:37:40.341Z,15.14
2019-05-12T14:40:47.031Z,14.63
2019-05-12T14:44:01.661Z,15.40
2019-05-12T14:47:07.448Z,16.67
2019-05-12T14:50:15.443Z,17.87
2019-05-12T14:53:23.726Z,16.51
2019-05-12T14:56:33.805Z,17.37
2019-05-12T14:59:44.064Z,15.17
2019-05-12T15:02:53.858Z,14.44
2019-05-12T15:06:07.226Z,14.75
2019-05-12T15:09:19.605Z,14.15
2019-05-12T15:12:24.297Z,14.93
2019-05-12T15:15:33.569Z,14.67
2019-05-12T15:18:46.794Z,14.67
2019-05-12T15:21:53.621Z,15.06
2019-05-12T15:25:03.402Z,14.90
2019-05-12T15:28:14.539Z,14.74
2019-05-12T15:31:24.222Z,14.51
2019-05-12T15:34:33.777Z,13.34
2019-05-12T15:37:43.712Z,14.17
2019-05-12T15:40:53.814Z,14.24
2019-05-12T15:44:03.345Z,13.78
2019-05-12T15:47:11.499Z,15.27
2019-05-12T15:50:19.566Z,15.80
2019-05-12T15:53:27.907Z,15.43
2019-05-12T15:56:37.558Z,15.64
2019-05-12T15:59:46.576Z,14.78
2019-05-12T16:02:54.557Z,15.13
2019-05-12T16:06:10.028Z,14.11
2019-05-12T16:09:13.249Z,14.11
2019-05-12T16:12:26.114Z,14.02
2019-05-12T16:15:31.554Z,14.27
2019-05-12T16:18:40.422Z,13.42
2019-05-12T16:21:49.599Z,13.42
2019-05-12T16:24:57.412Z,13.84
2019-05-12T16:28:07.607Z,13.84
2019-05-12T16:31:15.251Z,14.10
2019-05-12T16:34:23.631Z,13.30
2019-05-12T16:37:35.295Z,12.73
2019-05-12T16:40:45.544Z,12.73
2019-05-12T16:43:53.774Z,13.24
2019-05-12T16:47:04.304Z,13.00
2019-05-12T16:50:23.720Z,12.39
2019-05-12T16:53:27.812Z,12.39
2019-05-12T16:56:36.557Z,12.00
2019-05-12T16:59:44.538Z,11.86
2019-05-12T17:02:57.647Z,11.60
2019-05-12T17:06:03.581Z,11.60
2019-05-12T17:09:13.462Z,11.89
2019-05-12T17:12:23.985Z,11.95
2019-05-12T17:15:33.810Z,11.64
2019-05-12T17:18:44.157Z,11.68
2019-05-12T17:21:57.583Z,12.04
2019-05-12T17:25:01.536Z,12.04
2019-05-12T17:28:08.477Z,11.71
2019-05-12T17:31:18.539Z,11.94
2019-05-12T17:34:26.630Z,11.53
2019-05-12T17:37:37.502Z,11.56
2019-05-12T17:40:50.347Z,11.56
2019-05-12T17:44:01.367Z,11.55
2019-05-12T17:47:12.930Z,11.38
2019-05-12T17:50:24.409Z,11.35
2019-05-12T17:53:36.197Z,11.30
2019-05-12T17:56:43.461Z,11.25
2019-05-12T17:59:51.891Z,11.36
2019-05-12T18:03:15.657Z,11.36
2019-05-12T18:06:14.143Z,11.21
2019-05-12T18:09:23.629Z,11.08
2019-05-12T18:12:36.532Z,11.22
2019-05-12T18:15:44.241Z,11.36
2019-05-12T18:18:52.395Z,11.07
2019-05-12T18:22:03.534Z,10.95
2019-05-12T18:25:09.229Z,10.88
2019-05-12T18:28:21.583Z,10.81
2019-05-12T18:31:30.140Z,10.83
2019-05-12T18:34:38.248Z,10.81
2019-05-12T18:37:46.540Z,10.82
2019-05-12T18:40:55.057Z,10.56
2019-05-12T18:44:04.722Z,10.56
2019-05-12T18:47:16.799Z,10.58
2019-05-12T18:50:31.413Z,10.42
2019-05-12T18:53:38.546Z,10.22
2019-05-12T18:56:52.479Z,9.86
2019-05-12T19:00:03.659Z,9.86
2019-05-12T19:03:09.994Z,9.79
2019-05-12T19:06:17.572Z,9.50
2019-05-12T19:09:25.519Z,9.47
2019-05-12T19:12:35.663Z,9.47
2019-05-12T19:15:45.285Z,9.30
2019-05-12T19:18:55.623Z,9.06
2019-05-12T19:22:09.249Z,8.88
2019-05-12T19:25:19.494Z,8.68
2019-05-12T19:28:27.567Z,8.38
2019-05-12T19:31:36.735Z,8.22
2019-05-12T19:34:46.924Z,8.22
2019-05-12T19:37:54.940Z,8.12
2019-05-12T19:41:04.698Z,8.12
2019-05-12T19:44:13.526Z,8.07
2019-05-12T19:47:33.156Z,8.06
2019-05-12T19:50:33.659Z,8.09
2019-05-12T19:53:43.749Z,8.12
2019-05-12T19:56:54.125Z,8.11
2019-05-12T20:00:04.354Z,8.13
2019-05-12T20:03:13.871Z,8.18
2019-05-12T20:06:24.297Z,7.96
2019-05-12T20:09:32.277Z,7.96
2019-05-12T20:12:40.608Z,8.12
2019-05-12T20:15:48.921Z,7.95
2019-05-12T20:18:57.911Z,7.95
2019-05-12T20:22:10.547Z,7.89
2019-05-12T20:25:23.665Z,7.81
2019-05-12T20:28:34.608Z,7.81
2019-05-12T20:31:44.365Z,7.87
2019-05-12T20:34:55.408Z,7.82
2019-05-12T20:38:04.162Z,7.74
2019-05-12T20:41:21.865Z,7.43
2019-05-12T20:44:23.901Z,7.42
2019-05-12T20:47:33.727Z,7.25
2019-05-12T20:50:40.440Z,7.06
2019-05-12T20:53:50.125Z,6.90
2019-05-12T20:57:07.945Z,6.69
2019-05-12T21:00:08.784Z,6.49
2019-05-12T21:03:17.360Z,6.40
2019-05-12T21:06:25.550Z,6.18
2019-05-12T21:09:34.918Z,5.87
2019-05-12T21:12:48.091Z,5.87
2019-05-12T21:15:54.155Z,5.65
2019-05-12T21:19:10.261Z,5.46
2019-05-12T21:22:14.254Z,5.38
2019-05-12T21:25:23.301Z,5.28
2019-05-12T21:28:31.275Z,5.13
2019-05-12T21:31:39.753Z,4.98
2019-05-12T21:34:52.336Z,4.84
2019-05-12T21:37:58.392Z,4.67
2019-05-12T21:41:10.039Z,4.55
2019-05-12T21:44:19.338Z,4.39
2019-05-12T21:47:27.394Z,4.30
2019-05-12T21:50:38.279Z,4.12
2019-05-12T21:53:50.636Z,4.03
2019-05-12T21:56:55.267Z,3.89
2019-05-12T22:00:04.761Z,3.78
2019-05-12T22:03:15.531Z,3.44
2019-05-12T22:06:24.977Z,3.44
2019-05-12T22:09:41.769Z,3.45
2019-05-12T22:12:44.178Z,3.23
2019-05-12T22:15:56.941Z,3.23
2019-05-12T22:19:04.236Z,3.15
2019-05-12T22:22:13.573Z,3.05
2019-05-12T22:25:23.619Z,2.97
2019-05-12T22:28:31.588Z,2.90
2019-05-12T22:31:44.884Z,2.67
2019-05-12T22:34:49.491Z,2.67
2019-05-12T22:37:57.554Z,2.49
2019-05-12T22:41:05.595Z,2.56
2019-05-12T22:44:18.182Z,2.35
2019-05-12T22:47:23.979Z,2.35
2019-05-12T22:50:34.886Z,2.33
2019-05-12T22:53:43.454Z,2.28
2019-05-12T22:56:55.315Z,2.20
2019-05-12T23:00:04.005Z,2.13
2019-05-12T23:03:14.970Z,2.06
2019-05-12T23:06:26.812Z,1.90
2019-05-12T23:09:33.956Z,1.95
2019-05-12T23:12:44.109Z,1.87
2019-05-12T23:15:52.240Z,1.78
2019-05-12T23:19:01.548Z,1.69
2019-05-12T23:22:10.643Z,1.68
2019-05-12T23:25:21.491Z,1.55
2019-05-12T23:28:28.656Z,1.55
2019-05-12T23:31:37.350Z,1.30
2019-05-12T23:34:56.646Z,1.30
2019-05-12T23:37:55.563Z,1.35
2019-05-12T23:41:04.193Z,1.16
2019-05-12T23:44:13.554Z,1.16
2019-05-12T23:47:23.667Z,1.18
2019-05-12T23:50:31.345Z,1.18
2019-05-12T23:53:39.595Z,1.07
2019-05-12T23:56:47.590Z,0.98
2019-05-12T23:59:55.908Z,0.82
